Delta, Utah Weather observations

Data are for observation ending at time listed.
 Day   Time    Ave.   Ave.  Ave.  Vector   Max.   Stn.    Total    Solar   Ave.  
  of    of     Air    Rel.  Wind   Wind    Wind   Baro.  Precip.   Rad.    Soil  
Year   Day     Temp.  Hum.  Speed  Dir.    Gust   Pres.                    Temp. 
2017   (MST)    F      %     mph   deg.    mph     mb.     in.     W/m2     F   
------------------------------------------------------------------------------
  35   22:00   42.0    72    2.2   138      3.8   860.3    0.00       0    32.7
  35   22:10   41.7    72    1.6   161      2.9   860.5    0.00       0    32.5
  35   22:20   42.1    72    2.7   187      6.7   860.5    0.00       0    32.4
  35   22:30   42.1    72    2.8   148      4.8   860.5    0.00       0    32.4
  35   22:40   41.6    73    2.1   168      3.3   860.5    0.00       0    32.6
  35   22:50   41.8    73    2.4   168      3.7   860.5    0.00       0    32.8
  35   23:00   41.3    74    1.8   141      3.5   860.6    0.00       0    32.5
  35   23:10   41.1    74    2.2   130      3.1   860.6    0.00       0    32.8
  35   23:20   41.0    75    2.3   125      3.6   860.7    0.00       0    32.6
  35   23:30   40.8    75    3.6   146      6.9   860.6    0.00       0    32.8
  35   23:40   41.9    71    5.6   165      8.8   860.5    0.00       0    32.7
  35   23:50   42.9    67    6.2   169      9.1   860.5    0.00       0    32.5
  36    0:00   43.3    66    5.0   175      7.9   860.7    0.00       0    32.8
  36    0:10   42.7    68    5.1   179      7.7   860.8    0.00       0    32.5
  36    0:20   41.8    70    5.1   175      7.4   860.8    0.00       0    32.8
  36    0:30   41.7    70    3.2   169      6.2   860.8    0.00       0    32.6
  36    0:40   41.4    71    3.0   168      4.8   860.9    0.00       0    32.9
  36    0:50   41.1    72    3.4   156      5.4   861.0    0.00       0    32.8
  36    1:00   40.6    74    4.2   156      6.7   860.9    0.00       0    32.5
  36    1:10   40.9    72    3.7   169      5.3   861.0    0.00       0    32.6
  36    1:20   40.5    72    3.3   152      4.7   860.9    0.00       0    32.5
  36    1:30   39.8    74    2.7   154      4.2   860.9    0.00       0    32.7
  36    1:40   39.7    74    2.9   145      6.0   860.8    0.00       0    32.7
  36    1:50   40.2    72    2.9   145      5.0   860.9    0.00       0    32.6
  36    2:00   40.1    71    2.6   141      5.1   860.9    0.00       0    32.6
  36    2:10   40.0    71    3.2   149      5.0   860.8    0.00       0    32.7
  36    2:20   40.0    71    3.5   161      5.3   860.7    0.00       0    32.9
  36    2:30   39.6    72    3.0   157      5.6   860.7    0.00       0    32.7
  36    2:40   39.1    73    2.6   156      5.9   860.8    0.00       0    32.7
  36    2:50   38.7    74    3.2   170      5.6   860.8    0.00       0    32.7
  36    3:00   38.6    75    3.3   156      5.6   860.8    0.00       0    32.5
  36    3:10   38.5    75    3.1   151      5.6   860.9    0.00       0    32.6
  36    3:20   38.4    76    3.1   157      4.7   860.9    0.00       0    32.8
  36    3:30   38.4    76    2.9   158      4.5   860.9    0.00       0    32.7
  36    3:40   37.9    76    3.4   146      4.9   860.8    0.00       0    32.6
  36    3:50   37.5    78    2.8   150      5.4   860.8    0.00       0    32.8
  36    4:00   36.9    78    2.0   133      3.3   860.9    0.00       0    32.5
  36    4:10   36.3    80    1.5    96      2.1   860.9    0.00       0    32.5
  36    4:20   36.0    80    2.5   131      4.3   860.9    0.00       0    32.8
  36    4:30   36.0    81    2.3   137      3.4   861.0    0.00       0    32.6
  36    4:40   36.1    81    1.7   138      2.9   861.0    0.00       0    32.6
  36    4:50   36.3    80    1.9   148      3.3   861.0    0.00       0    32.8
  36    5:00   36.3    80    1.7   134      2.6   861.0    0.00       0    32.6
  36    5:10   35.8    80    2.4   138      3.4   860.9    0.00       0    32.8
  36    5:20   35.7    81    2.2   147      3.1   860.9    0.00       0    32.9
  36    5:30   35.7    81    1.7   133      2.9   860.9    0.00       0    32.5
  36    5:40   35.6    82    1.9   104      2.7   860.9    0.00       0    32.6
  36    5:50   35.3    82    1.9   122      2.9   860.9    0.00       0    32.7
  36    6:00   35.2    82    2.8   134      4.6   860.7    0.00       0    32.6
  36    6:10   35.5    81    3.2   136      4.3   860.5    0.00       0    32.7
  36    6:20   35.5    81    3.5   140      6.6   860.5    0.00       0    32.6
  36    6:30   35.4    80    2.8   137      4.9   860.6    0.00       0    32.6
  36    6:40   35.2    81    1.9   104      3.4   860.6    0.00       0    32.7
  36    6:50   35.3    81    2.0   116      3.1   860.5    0.00       0    32.5
  36    7:00   35.3    81    1.6   126      2.3   860.5    0.00       0    32.5
  36    7:10   35.6    80    1.9   146      3.2   860.5    0.00       0    32.7
  36    7:20   36.0    79    1.4   156      2.7   860.6    0.00       0    32.6
  36    7:30   36.2    79    2.3   168      3.1   860.6    0.00       0    32.6
  36    7:40   36.6    78    1.7   181      2.9   860.7    0.00       2    32.7
  36    7:50   36.7    77    1.3   187      2.1   860.8    0.00       6    32.7
  36    8:00   36.8    76    0.5   147      1.5   861.0    0.00      11    32.7
  36    8:10   36.5    77    2.0   119      2.9   861.1    0.00      17    32.7
  36    8:20   36.5    77    1.3   101      2.1   861.0    0.00      21    32.7
  36    8:30   36.9    77    1.7   130      2.9   861.0    0.00      44    32.7
  36    8:40   37.7    76    2.6   144      3.7   861.0    0.00      41    32.9
  36    8:50   38.5    75    3.6   157      6.9   861.0    0.00      68    32.7
  36    9:00   39.0    74    3.7   150      5.8   861.2    0.00     107    32.7
  36    9:10   39.5    74    3.5   168      4.9   861.3    0.00     101    32.6
  36    9:20   39.7    74    4.0   166      6.4   861.4    0.00      76    32.4
  36    9:30   40.6    73    4.8   173      7.7   861.3    0.00     119    32.7
  36    9:40   41.9    71    4.4   170      6.7   861.4    0.00     198    32.7
  36    9:50   42.0    71    4.5   182      8.0   861.5    0.00     203    32.6
  36   10:00   41.9    72    4.3   186      8.8   861.6    0.00     139    32.5
  36   10:10   41.9    73    3.6   164      6.2   861.6    0.00     128    32.8
  36   10:20   42.3    73    2.9   168      4.4   861.7    0.00     124    32.6
  36   10:30   42.8    72    3.1   196      4.5   861.6    0.00     151    32.7
  36   10:40   43.5    70    3.0   167      4.4   861.4    0.00     186    32.8
  36   10:50   44.5    68    2.8   172      4.2   861.5    0.00     246    32.9
  36   11:00   45.2    66    2.9   168      4.3   861.5    0.00     248    32.7
  36   11:10   45.3    66    2.8   163      4.0   861.4    0.00     207    32.6
  36   11:20   45.7    63    2.4   176      4.1   861.3    0.00     200    32.6
  36   11:30   46.3    61    2.1   182      3.8   861.2    0.00     245    32.7
  36   11:40   46.9    59    2.1   190      5.2   861.3    0.00     192    32.8
  36   11:50   46.8    60    2.4   171      3.9   861.2    0.00     184    32.8
  36   12:00   47.4    60    2.0   164      3.4   861.2    0.00     189    32.7
  36   12:10   47.5    59    3.1   150      5.1   860.9    0.00     200    32.6
  36   12:20   48.3    59    2.8   148      5.8   860.7    0.00     212    32.6
  36   12:30   48.6    59    3.2   147      6.9   860.6    0.00     203    32.6
  36   12:40   48.8    60    3.7   152      6.3   860.4    0.00     199    32.8
  36   12:50   49.3    60    3.6   161      5.7   860.2    0.00     200    32.6
  36   13:00   49.8    60    3.8   186      6.1   860.0    0.00     196    32.8
  36   13:10   49.8    60    3.9   175      6.3   859.8    0.00     198    32.6
  36   13:20   49.5    61    2.5   228      4.9   859.5    0.00     196    32.6
  36   13:30   48.5    64    3.2   275      6.1   859.4    0.00     218    32.6
  36   13:40   46.6    68    2.8   287      5.4   859.3    0.00     211    32.7
  36   13:50   45.6    70    2.9   319      5.0   859.2    0.00     194    32.8
  36   14:00   45.4    70    3.1   344      5.0   859.1    0.00     168    32.8
  36   14:10   45.3    71    3.0   340      5.5   858.8    0.00     150    32.7
  36   14:20   46.0    68    2.7   338      4.1   858.6    0.00     134    32.6
  36   14:30   46.3    68    3.4     2      5.9   858.4    0.00     139    32.5
  36   14:40   46.4    67    2.0   354      3.8   858.3    0.00     149    33.0
  36   14:50   47.3    66    2.2   346      3.4   858.2    0.00     161    32.7
  36   15:00   48.2    64    2.0     3      3.3   858.0    0.00     224    32.5
  36   15:10   49.8    61    1.6     4      3.2   857.9    0.00     180    32.7
  36   15:20   50.9    58    1.4   126      3.4   857.8    0.00     153    32.4
  36   15:30   51.5    54    2.4   174      5.4   857.6    0.00     163    32.5
  36   15:40   51.3    54    2.8   156      4.2   857.5    0.00     116    32.5
  36   15:50   50.8    55    2.2   145      3.7   857.4    0.00     110    32.9
  36   16:00   50.9    57    2.2   117      3.6   857.2    0.00     104    32.8
  36   16:10   51.0    57    1.0   121      2.9   857.1    0.00      75    32.8
  36   16:20   51.0    58    1.5   114      2.4   856.9    0.00      58    32.7
  36   16:30   50.6    58    1.6   109      2.5   856.8    0.00      49    32.6
  36   16:40   50.0    60    1.8    88      2.9   856.7    0.00      35    32.7
  36   16:50   49.2    62    2.1    85      3.1   856.6    0.00      33    32.6
  36   17:00   48.7    63    1.8    85      2.9   856.5    0.00      28    32.6
  36   17:10   48.1    64    2.4    90      3.6   856.5    0.00      21    32.8
  36   17:20   47.8    64    2.1   103      3.4   856.4    0.00      17    32.7
  36   17:30   47.9    64    1.6   106      2.4   856.3    0.00      13    32.9
  36   17:40   47.6    64    0.9   102      2.0   856.2    0.00       9    32.5
  36   17:50   47.2    65    0.6   234      3.0   856.3    0.00       4    32.7
  36   18:00   47.2    65    1.6   112      2.5   856.2    0.00       2    32.6
  36   18:10   47.1    66    1.7   131      2.4   855.9    0.00       0    32.8
  36   18:20   46.5    68    1.6   119      2.7   855.7    0.00       0    32.9
  36   18:30   46.1    68    1.7   119      2.4   855.6    0.00       0    32.7
  36   18:40   45.9    68    2.0   141      3.1   855.6    0.00       0    32.8
  36   18:50   45.5    69    2.3   120      3.3   855.5    0.00       0    32.7
  36   19:00   45.3    69    1.7   137      2.5   855.5    0.00       0    32.8
  36   19:10   45.2    68    1.9   141      3.2   855.5    0.00       0    32.7
  36   19:20   44.8    69    1.5   149      2.5   855.6    0.00       0    32.7
  36   19:30   44.9    68    1.9   149      3.5   855.6    0.00       0    32.7
  36   19:40   45.1    67    1.4   141      4.1   855.6    0.00       0    32.7
  36   19:50   44.9    68    1.0   154      2.4   855.7    0.00       0    32.9
  36   20:00   44.7    68    2.4   144      3.7   855.7    0.00       0    32.7
  36   20:10   44.0    70    3.1   137      4.8   855.6    0.00       0    32.9
  36   20:20   43.4    71    3.6   140      5.6   855.6    0.00       0    32.8
  36   20:30   43.2    70    4.5   143      7.4   855.5    0.00       0    32.9
  36   20:40   44.1    68    5.2   156      8.8   855.5    0.00       0    32.9
  36   20:50   44.8    65    5.3   153      9.6   855.5    0.00       0    32.9
  36   21:00   45.7    59    6.4   171     10.2   855.4    0.00       0    32.7
  36   21:10   45.9    58    5.7   178      9.1   855.5    0.00       0    33.0
  36   21:20   45.6    57    6.1   170      9.7   855.4    0.00       0    32.8
  36   21:30   45.3    58    5.8   166      8.8   855.3    0.00       0    32.9
  36   21:40   45.0    58    7.1   165     10.6   855.3    0.00       0    32.8
  36   21:50   45.0    58    6.0   165     11.5   855.2    0.00       0    32.9

Return to Delta, Utah graphs page.


Western Regional Climate Center,wrcc@dri.edu